AUA10A LOWW-LOWI
Flight info
| Callsign | AUA10A |
|---|---|
| Flight time | 0h 41m |
| Altitude | 28000 |
| Route | SOVIL DCT SITNI DCT BAGSI DCT NANIT NANIT2A |
| Aircraft | A321/M-SDE3FGHIRWY/LB1 |
Departure
| Time | 2026-04-22 08:55 |
|---|---|
| Airport | Vienna International Airport (LOWW) |
Arrival
| Time | 2026-04-22 09:37 |
|---|---|
| Airport | Innsbruck Airport (LOWI) |
| Time | Latitude | Longitude | Altitude | Speed | Heading |
|---|---|---|---|---|---|
| 2026-04-22 08:29 | 48.11468 | 16.57016 | 610 ft | 0 kts | 206° |
| 2026-04-22 08:50 | 48.11466 | 16.57015 | 610 ft | 2 kts | 208° |
| 2026-04-22 08:51 | 48.11445 | 16.56998 | 624 ft | 5 kts | 208° |
| 2026-04-22 08:51 | 48.11400 | 16.56987 | 618 ft | 9 kts | 151° |
| 2026-04-22 08:51 | 48.11366 | 16.57073 | 617 ft | 9 kts | 116° |
| 2026-04-22 08:51 | 48.11339 | 16.57156 | 621 ft | 9 kts | 116° |
| 2026-04-22 08:52 | 48.11311 | 16.57238 | 621 ft | 9 kts | 116° |
| 2026-04-22 08:52 | 48.11282 | 16.57329 | 613 ft | 10 kts | 116° |
| 2026-04-22 08:52 | 48.11245 | 16.57440 | 621 ft | 13 kts | 115° |
| 2026-04-22 08:52 | 48.11206 | 16.57561 | 613 ft | 13 kts | 116° |
| 2026-04-22 08:53 | 48.11141 | 16.57591 | 621 ft | 10 kts | 206° |
| 2026-04-22 08:53 | 48.11086 | 16.57535 | 615 ft | 8 kts | 209° |
| 2026-04-22 08:53 | 48.11050 | 16.57506 | 621 ft | 5 kts | 208° |
| 2026-04-22 08:53 | 48.11011 | 16.57478 | 621 ft | 8 kts | 206° |
| 2026-04-22 08:54 | 48.10964 | 16.57408 | 612 ft | 12 kts | 261° |
| 2026-04-22 08:54 | 48.11005 | 16.57258 | 619 ft | 21 kts | 295° |
| 2026-04-22 08:54 | 48.11146 | 16.56827 | 618 ft | 80 kts | 297° |
| 2026-04-22 08:54 | 48.11480 | 16.55802 | 618 ft | 137 kts | 296° |
| 2026-04-22 08:55 | 48.11949 | 16.54347 | 743 ft | 167 kts | 297° |
| 2026-04-22 08:55 | 48.12401 | 16.52795 | 1479 ft | 164 kts | 287° |
| 2026-04-22 08:55 | 48.12283 | 16.51067 | 2057 ft | 179 kts | 248° |
| 2026-04-22 08:55 | 48.11519 | 16.49441 | 2313 ft | 202 kts | 233° |
| 2026-04-22 08:56 | 48.10574 | 16.47731 | 2497 ft | 226 kts | 236° |
| 2026-04-22 08:56 | 48.09620 | 16.45707 | 2781 ft | 250 kts | 241° |
| 2026-04-22 08:56 | 48.08610 | 16.43469 | 3387 ft | 265 kts | 239° |
| 2026-04-22 08:56 | 48.07534 | 16.41189 | 4210 ft | 272 kts | 237° |
| 2026-04-22 08:57 | 48.06411 | 16.38874 | 4962 ft | 276 kts | 236° |
| 2026-04-22 08:57 | 48.05285 | 16.36585 | 5843 ft | 278 kts | 236° |
| 2026-04-22 08:57 | 48.04151 | 16.34244 | 6781 ft | 279 kts | 241° |
| 2026-04-22 08:57 | 48.03419 | 16.31583 | 7563 ft | 278 kts | 262° |
| 2026-04-22 08:58 | 48.03312 | 16.28702 | 8298 ft | 279 kts | 275° |
| 2026-04-22 08:58 | 48.03376 | 16.25781 | 9052 ft | 285 kts | 275° |
| 2026-04-22 08:58 | 48.03439 | 16.22789 | 9784 ft | 290 kts | 275° |
| 2026-04-22 08:58 | 48.03499 | 16.19730 | 10299 ft | 303 kts | 274° |
| 2026-04-22 08:59 | 48.03563 | 16.16458 | 10492 ft | 326 kts | 274° |
| 2026-04-22 08:59 | 48.03627 | 16.13003 | 10632 ft | 348 kts | 274° |
| 2026-04-22 08:59 | 48.03691 | 16.09281 | 10761 ft | 368 kts | 274° |
| 2026-04-22 08:59 | 48.03756 | 16.05401 | 11188 ft | 378 kts | 273° |
| 2026-04-22 09:00 | 48.03818 | 16.01447 | 11771 ft | 382 kts | 274° |
| 2026-04-22 09:00 | 48.03877 | 15.97455 | 12380 ft | 386 kts | 274° |
| 2026-04-22 09:00 | 48.03935 | 15.93425 | 12975 ft | 390 kts | 274° |
| 2026-04-22 09:00 | 48.03994 | 15.89346 | 13538 ft | 395 kts | 274° |
| 2026-04-22 09:01 | 48.04054 | 15.85228 | 14107 ft | 399 kts | 274° |
| 2026-04-22 09:01 | 48.04113 | 15.81068 | 14627 ft | 402 kts | 274° |
| 2026-04-22 09:01 | 48.04169 | 15.76941 | 15120 ft | 404 kts | 274° |
| 2026-04-22 09:01 | 48.04224 | 15.72737 | 15625 ft | 406 kts | 274° |
| 2026-04-22 09:02 | 48.04281 | 15.68499 | 16087 ft | 409 kts | 274° |
| 2026-04-22 09:02 | 48.04338 | 15.64248 | 16563 ft | 411 kts | 274° |
| 2026-04-22 09:02 | 48.04393 | 15.59959 | 17032 ft | 414 kts | 274° |
| 2026-04-22 09:02 | 48.04445 | 15.55645 | 17500 ft | 416 kts | 274° |
| 2026-04-22 09:03 | 48.04496 | 15.51303 | 17971 ft | 419 kts | 274° |
| 2026-04-22 09:03 | 48.04543 | 15.46943 | 18425 ft | 421 kts | 273° |
| 2026-04-22 09:03 | 48.04586 | 15.42559 | 18848 ft | 424 kts | 273° |
| 2026-04-22 09:03 | 48.04627 | 15.38136 | 19271 ft | 426 kts | 273° |
| 2026-04-22 09:04 | 48.04675 | 15.33756 | 19705 ft | 428 kts | 274° |
| 2026-04-22 09:04 | 48.04745 | 15.29298 | 20136 ft | 430 kts | 274° |
| 2026-04-22 09:04 | 48.04829 | 15.24820 | 20562 ft | 433 kts | 274° |
| 2026-04-22 09:04 | 48.04913 | 15.20318 | 21007 ft | 435 kts | 274° |
| 2026-04-22 09:05 | 48.04990 | 15.15780 | 21451 ft | 438 kts | 274° |
| 2026-04-22 09:05 | 48.05060 | 15.11217 | 21891 ft | 440 kts | 274° |
| 2026-04-22 09:05 | 48.05125 | 15.06639 | 22314 ft | 443 kts | 274° |
| 2026-04-22 09:05 | 48.05186 | 15.02083 | 22696 ft | 445 kts | 274° |
| 2026-04-22 09:06 | 48.05248 | 14.97441 | 23091 ft | 448 kts | 274° |
| 2026-04-22 09:06 | 48.05309 | 14.92767 | 23493 ft | 451 kts | 274° |
| 2026-04-22 09:06 | 48.05368 | 14.88073 | 23880 ft | 454 kts | 274° |
| 2026-04-22 09:06 | 48.05424 | 14.83344 | 24214 ft | 456 kts | 274° |
| 2026-04-22 09:07 | 48.05474 | 14.78586 | 24551 ft | 459 kts | 274° |
| 2026-04-22 09:07 | 48.05520 | 14.73811 | 24883 ft | 461 kts | 273° |
| 2026-04-22 09:07 | 48.05560 | 14.69019 | 25212 ft | 463 kts | 273° |
| 2026-04-22 09:07 | 48.05595 | 14.64195 | 25528 ft | 465 kts | 273° |
| 2026-04-22 09:08 | 48.05626 | 14.59351 | 25805 ft | 467 kts | 273° |
| 2026-04-22 09:08 | 48.05654 | 14.54547 | 26082 ft | 469 kts | 273° |
| 2026-04-22 09:08 | 48.05683 | 14.49661 | 26343 ft | 471 kts | 273° |
| 2026-04-22 09:08 | 48.05709 | 14.44746 | 26615 ft | 473 kts | 273° |
| 2026-04-22 09:09 | 48.05732 | 14.39823 | 26866 ft | 475 kts | 273° |
| 2026-04-22 09:09 | 48.05714 | 14.34875 | 27099 ft | 478 kts | 269° |
| 2026-04-22 09:09 | 48.05287 | 14.29926 | 27325 ft | 482 kts | 260° |
| 2026-04-22 09:09 | 48.04368 | 14.25118 | 27635 ft | 484 kts | 251° |
| 2026-04-22 09:10 | 48.02992 | 14.20514 | 27942 ft | 485 kts | 245° |
| 2026-04-22 09:10 | 48.01520 | 14.16078 | 28208 ft | 484 kts | 245° |
| 2026-04-22 09:10 | 48.00028 | 14.11577 | 28278 ft | 480 kts | 245° |
| 2026-04-22 09:11 | 47.97081 | 14.02696 | 28287 ft | 477 kts | 245° |
| 2026-04-22 09:11 | 47.94129 | 13.93839 | 28290 ft | 476 kts | 245° |
| 2026-04-22 09:12 | 47.91179 | 13.85001 | 28288 ft | 476 kts | 245° |
| 2026-04-22 09:12 | 47.88223 | 13.76178 | 28283 ft | 476 kts | 245° |
| 2026-04-22 09:13 | 47.85268 | 13.67419 | 28284 ft | 476 kts | 245° |
| 2026-04-22 09:13 | 47.82290 | 13.58626 | 28253 ft | 475 kts | 245° |
| 2026-04-22 09:14 | 47.79310 | 13.49860 | 28255 ft | 474 kts | 245° |
| 2026-04-22 09:14 | 47.76337 | 13.41114 | 28260 ft | 474 kts | 245° |
| 2026-04-22 09:15 | 47.73384 | 13.32440 | 28262 ft | 474 kts | 245° |
| 2026-04-22 09:15 | 47.70400 | 13.23724 | 28258 ft | 474 kts | 245° |
| 2026-04-22 09:16 | 47.67401 | 13.15010 | 28256 ft | 473 kts | 245° |
| 2026-04-22 09:16 | 47.65903 | 13.10673 | 28100 ft | 471 kts | 245° |
| 2026-04-22 09:16 | 47.64430 | 13.06418 | 27827 ft | 457 kts | 245° |
| 2026-04-22 09:16 | 47.63003 | 13.02292 | 27568 ft | 443 kts | 245° |
| 2026-04-22 09:17 | 47.61632 | 12.98330 | 27294 ft | 431 kts | 245° |
| 2026-04-22 09:17 | 47.60282 | 12.94441 | 27023 ft | 419 kts | 245° |
| 2026-04-22 09:17 | 47.58966 | 12.90654 | 26758 ft | 407 kts | 245° |
| 2026-04-22 09:17 | 47.57691 | 12.86984 | 26494 ft | 395 kts | 245° |
| 2026-04-22 09:18 | 47.56447 | 12.83408 | 26230 ft | 387 kts | 245° |
| 2026-04-22 09:18 | 47.55219 | 12.79884 | 25974 ft | 384 kts | 245° |
| 2026-04-22 09:18 | 47.53997 | 12.76383 | 25712 ft | 382 kts | 245° |
| 2026-04-22 09:18 | 47.52780 | 12.72906 | 25453 ft | 380 kts | 245° |
| 2026-04-22 09:19 | 47.51564 | 12.69434 | 25218 ft | 379 kts | 245° |
| 2026-04-22 09:19 | 47.50357 | 12.65989 | 24967 ft | 376 kts | 245° |
| 2026-04-22 09:19 | 47.49153 | 12.62560 | 24330 ft | 378 kts | 245° |
| 2026-04-22 09:19 | 47.47960 | 12.59156 | 23848 ft | 376 kts | 245° |
| 2026-04-22 09:20 | 47.46758 | 12.55739 | 23263 ft | 373 kts | 245° |
| 2026-04-22 09:20 | 47.45563 | 12.52347 | 22725 ft | 371 kts | 245° |
| 2026-04-22 09:20 | 47.44375 | 12.48983 | 22215 ft | 368 kts | 245° |
| 2026-04-22 09:20 | 47.43195 | 12.45648 | 21735 ft | 365 kts | 245° |
| 2026-04-22 09:21 | 47.42022 | 12.42336 | 21233 ft | 362 kts | 245° |
| 2026-04-22 09:21 | 47.40865 | 12.39046 | 20752 ft | 359 kts | 247° |
| 2026-04-22 09:21 | 47.40026 | 12.35612 | 20316 ft | 352 kts | 260° |
| 2026-04-22 09:21 | 47.39699 | 12.32079 | 19791 ft | 344 kts | 272° |
| 2026-04-22 09:22 | 47.39859 | 12.28652 | 19179 ft | 337 kts | 282° |
| 2026-04-22 09:22 | 47.40197 | 12.25243 | 18591 ft | 334 kts | 282° |
| 2026-04-22 09:22 | 47.40523 | 12.21858 | 17896 ft | 331 kts | 282° |
| 2026-04-22 09:22 | 47.40839 | 12.18503 | 17206 ft | 329 kts | 281° |
| 2026-04-22 09:23 | 47.41152 | 12.15139 | 16268 ft | 330 kts | 281° |
| 2026-04-22 09:23 | 47.41462 | 12.11802 | 15437 ft | 325 kts | 281° |
| 2026-04-22 09:23 | 47.41756 | 12.08566 | 14925 ft | 310 kts | 281° |
| 2026-04-22 09:23 | 47.42033 | 12.05483 | 14467 ft | 296 kts | 281° |
| 2026-04-22 09:24 | 47.42302 | 12.02497 | 14051 ft | 291 kts | 281° |
| 2026-04-22 09:24 | 47.42556 | 11.99551 | 13629 ft | 286 kts | 277° |
| 2026-04-22 09:24 | 47.42404 | 11.96663 | 13178 ft | 281 kts | 258° |
| 2026-04-22 09:24 | 47.41684 | 11.94053 | 12783 ft | 277 kts | 239° |
| 2026-04-22 09:25 | 47.40478 | 11.91884 | 12353 ft | 272 kts | 220° |
| 2026-04-22 09:25 | 47.38929 | 11.90318 | 11954 ft | 267 kts | 210° |
| 2026-04-22 09:25 | 47.37384 | 11.88969 | 11565 ft | 250 kts | 210° |
| 2026-04-22 09:25 | 47.35941 | 11.87694 | 11149 ft | 233 kts | 211° |
| 2026-04-22 09:26 | 47.34694 | 11.86276 | 10792 ft | 221 kts | 224° |
| 2026-04-22 09:26 | 47.33711 | 11.84597 | 10437 ft | 214 kts | 235° |
| 2026-04-22 09:26 | 47.32968 | 11.82698 | 9905 ft | 216 kts | 247° |
| 2026-04-22 09:26 | 47.32484 | 11.80619 | 9536 ft | 210 kts | 257° |
| 2026-04-22 09:27 | 47.32163 | 11.78614 | 9433 ft | 193 kts | 259° |
| 2026-04-22 09:27 | 47.31899 | 11.76726 | 9136 ft | 190 kts | 260° |
| 2026-04-22 09:27 | 47.31639 | 11.74822 | 8774 ft | 187 kts | 259° |
| 2026-04-22 09:27 | 47.31384 | 11.72965 | 8456 ft | 184 kts | 260° |
| 2026-04-22 09:28 | 47.31132 | 11.71134 | 8149 ft | 181 kts | 260° |
| 2026-04-22 09:28 | 47.30807 | 11.69349 | 7827 ft | 180 kts | 256° |
| 2026-04-22 09:28 | 47.30501 | 11.67556 | 7515 ft | 179 kts | 259° |
| 2026-04-22 09:28 | 47.30238 | 11.65780 | 7196 ft | 177 kts | 259° |
| 2026-04-22 09:29 | 47.29989 | 11.64003 | 6906 ft | 177 kts | 259° |
| 2026-04-22 09:29 | 47.29748 | 11.62255 | 6612 ft | 176 kts | 259° |
| 2026-04-22 09:29 | 47.29506 | 11.60493 | 6306 ft | 176 kts | 259° |
| 2026-04-22 09:29 | 47.29265 | 11.58732 | 6003 ft | 174 kts | 259° |
| 2026-04-22 09:30 | 47.29026 | 11.56986 | 5681 ft | 173 kts | 259° |
| 2026-04-22 09:30 | 47.28790 | 11.55268 | 5335 ft | 171 kts | 259° |
| 2026-04-22 09:30 | 47.28497 | 11.53579 | 5089 ft | 172 kts | 251° |
| 2026-04-22 09:30 | 47.28159 | 11.51871 | 4890 ft | 174 kts | 255° |
| 2026-04-22 09:31 | 47.27806 | 11.50173 | 4736 ft | 173 kts | 248° |
| 2026-04-22 09:31 | 47.27311 | 11.48565 | 4679 ft | 172 kts | 243° |
| 2026-04-22 09:31 | 47.26774 | 11.47016 | 4727 ft | 172 kts | 242° |
| 2026-04-22 09:31 | 47.26239 | 11.45433 | 4747 ft | 173 kts | 243° |
| 2026-04-22 09:32 | 47.25708 | 11.43876 | 4689 ft | 165 kts | 242° |
| 2026-04-22 09:32 | 47.25191 | 11.42403 | 4618 ft | 159 kts | 242° |
| 2026-04-22 09:32 | 47.24714 | 11.40942 | 4596 ft | 157 kts | 248° |
| 2026-04-22 09:32 | 47.24357 | 11.39414 | 4554 ft | 158 kts | 253° |
| 2026-04-22 09:33 | 47.24105 | 11.37840 | 4509 ft | 158 kts | 260° |
| 2026-04-22 09:33 | 47.23952 | 11.36240 | 4476 ft | 158 kts | 265° |
| 2026-04-22 09:33 | 47.23866 | 11.34627 | 4513 ft | 157 kts | 264° |
| 2026-04-22 09:33 | 47.23667 | 11.33076 | 4401 ft | 152 kts | 258° |
| 2026-04-22 09:34 | 47.23444 | 11.31587 | 4300 ft | 150 kts | 260° |
| 2026-04-22 09:34 | 47.23193 | 11.30072 | 4152 ft | 151 kts | 256° |
| 2026-04-22 09:34 | 47.22937 | 11.28580 | 3955 ft | 150 kts | 262° |
| 2026-04-22 09:35 | 47.23845 | 11.26347 | 3766 ft | 141 kts | 351° |
| 2026-04-22 09:35 | 47.24797 | 11.26591 | 3460 ft | 142 kts | 27° |
| 2026-04-22 09:35 | 47.25375 | 11.27712 | 3094 ft | 143 kts | 80° |
| 2026-04-22 09:35 | 47.25464 | 11.29195 | 2669 ft | 147 kts | 81° |
| 2026-04-22 09:36 | 47.25634 | 11.30674 | 2376 ft | 145 kts | 82° |
| 2026-04-22 09:36 | 47.25782 | 11.32123 | 2099 ft | 142 kts | 81° |
| 2026-04-22 09:36 | 47.25934 | 11.33561 | 1909 ft | 140 kts | 82° |
| 2026-04-22 09:36 | 47.26056 | 11.34730 | 1893 ft | 76 kts | 81° |
| 2026-04-22 09:37 | 47.26104 | 11.35170 | 1900 ft | 17 kts | 81° |
| 2026-04-22 09:37 | 47.26063 | 11.35259 | 1896 ft | 12 kts | 167° |
| 2026-04-22 09:37 | 47.25979 | 11.35277 | 1897 ft | 8 kts | 171° |
| 2026-04-22 09:37 | 47.25926 | 11.35286 | 1897 ft | 7 kts | 183° |
| 2026-04-22 09:38 | 47.25899 | 11.35248 | 1891 ft | 5 kts | 253° |
| 2026-04-22 09:38 | 47.25893 | 11.35206 | 1886 ft | 4 kts | 259° |
| 2026-04-22 09:38 | 47.25889 | 11.35170 | 1892 ft | 4 kts | 260° |
| 2026-04-22 09:38 | 47.25884 | 11.35127 | 1892 ft | 5 kts | 261° |
| 2026-04-22 09:39 | 47.25878 | 11.35074 | 1888 ft | 3 kts | 261° |
| 2026-04-22 09:39 | 47.25873 | 11.35053 | 1890 ft | 2 kts | 237° |
| 2026-04-22 09:39 | 47.25848 | 11.35046 | 1896 ft | 4 kts | 178° |
| 2026-04-22 09:39 | 47.25828 | 11.35051 | 1899 ft | 1 kts | 170° |
| 2026-04-22 09:40 | 47.25824 | 11.35052 | 1899 ft | 0 kts | 170° |